Time;durP1;ratioP1;P1;durP2;ratioP2;P2;SDS_P1;SDS_P2;PMS_P1;PMS_P2;Temp;Humidity;BMP_temperature;BMP_pressure;BME280_temperature;BME280_humidity;BME280_pressure;Samples;Min_cycle;Max_cycle;Signal;HPM_P1;HPM_P2
2022/12/12 00:28:01;;;;;;;36.75;20.45;;;;;;;-1.54;99.56;100095.41;5035639;28;20111;-62
2022/12/12 01:22:18;;;;;;;44.92;22.38;;;;;;;-1.41;100.00;100139.94;5029646;28;20128;-62
2022/12/12 01:47:11;;;;;;;37.70;19.77;;;;;;;-1.34;100.00;100136.38;5027956;28;20053;-62
2022/12/12 03:24:34;;;;;;;40.53;21.02;;;;;;;-0.79;100.00;100148.22;5026517;28;20048;-61
2022/12/12 04:07:16;;;;;;;32.47;16.63;;;;;;;-0.39;100.00;100143.06;5032831;28;20110;-61
2022/12/12 04:17:57;;;;;;;29.73;15.73;;;;;;;-0.24;100.00;100146.22;5029873;28;20041;-62
2022/12/12 04:33:00;;;;;;;27.48;15.40;;;;;;;-0.14;100.00;100134.75;5026679;28;20119;-61
2022/12/12 04:44:22;;;;;;;29.60;16.20;;;;;;;-0.16;100.00;100126.19;5014582;28;20513;-62
2022/12/12 05:00:22;;;;;;;29.60;14.02;;;;;;;-0.09;100.00;100131.19;5017307;28;20025;-63
2022/12/12 06:59:30;;;;;;;10.25;6.60;;;;;;;-0.05;98.23;100201.81;5029841;28;20029;-58
2022/12/12 07:01:57;;;;;;;7.13;5.70;;;;;;;-0.07;98.50;100199.28;5030547;28;20057;-55
2022/12/12 07:04:25;;;;;;;7.72;6.38;;;;;;;-0.14;98.41;100197.69;5021595;28;20137;-60
2022/12/12 07:06:52;;;;;;;8.30;6.35;;;;;;;-0.14;98.89;100202.88;5024949;28;20145;-59
2022/12/12 07:09:19;;;;;;;8.07;6.30;;;;;;;-0.15;98.96;100201.19;5027190;28;20505;-53
2022/12/12 07:11:47;;;;;;;7.72;5.97;;;;;;;-0.09;99.17;100206.22;5027573;28;20659;-61
2022/12/12 07:14:14;;;;;;;9.10;5.93;;;;;;;-0.05;99.07;100207.84;5021671;28;20045;-61
2022/12/12 07:16:41;;;;;;;7.18;5.43;;;;;;;-0.02;99.14;100199.16;5027302;28;20060;-59
2022/12/12 07:19:08;;;;;;;8.20;6.30;;;;;;;0.03;98.65;100205.09;5028215;28;20057;-59
2022/12/12 07:21:35;;;;;;;14.70;6.43;;;;;;;0.00;98.20;100215.53;5026999;28;20084;-56
2022/12/12 07:24:03;;;;;;;8.38;6.18;;;;;;;0.02;98.67;100215.50;5027392;28;20045;-61
2022/12/12 07:26:30;;;;;;;10.20;6.85;;;;;;;-0.03;98.50;100220.75;5030845;28;20123;-57
2022/12/12 07:28:57;;;;;;;8.95;6.22;;;;;;;-0.01;97.99;100211.22;5031693;28;20127;-58
2022/12/12 07:31:25;;;;;;;10.50;6.88;;;;;;;0.07;97.59;100216.22;5029988;28;20060;-57
2022/12/12 07:33:53;;;;;;;9.27;7.32;;;;;;;0.05;97.54;100213.69;5031710;28;20045;-60
2022/12/12 07:36:20;;;;;;;11.60;7.38;;;;;;;0.06;97.70;100227.47;5030825;28;20061;-58
2022/12/12 07:38:48;;;;;;;8.27;6.75;;;;;;;0.08;97.81;100217.94;5031512;28;20582;-60
2022/12/12 07:41:17;;;;;;;8.15;5.85;;;;;;;0.04;97.80;100224.06;5030328;28;20141;-60
2022/12/12 07:43:45;;;;;;;9.23;6.78;;;;;;;0.09;97.27;100229.97;5033253;28;20053;-56
2022/12/12 07:46:15;;;;;;;9.38;6.88;;;;;;;-0.01;97.11;100229.34;5034504;28;20506;-60
2022/12/12 07:48:43;;;;;;;6.97;5.85;;;;;;;-0.02;97.37;100228.47;5035684;28;20073;-56
2022/12/12 07:51:11;;;;;;;8.75;6.50;;;;;;;-0.04;97.19;100237.19;5030086;28;20077;-61
2022/12/12 07:53:38;;;;;;;9.05;7.05;;;;;;;-0.05;97.08;100236.31;5033666;28;20057;-58
2022/12/12 07:56:10;;;;;;;8.00;6.00;;;;;;;-0.08;97.18;100245.91;5033474;28;20049;-60
2022/12/12 07:58:38;;;;;;;9.25;6.70;;;;;;;-0.16;97.01;100248.63;5031656;28;20169;-57
2022/12/12 08:01:13;;;;;;;8.43;6.47;;;;;;;-0.10;98.15;100240.72;5028621;28;20103;-60
2022/12/12 08:03:43;;;;;;;9.70;6.07;;;;;;;-0.06;97.03;100246.69;5031423;28;20775;-57
2022/12/12 08:06:11;;;;;;;7.97;6.15;;;;;;;-0.08;97.12;100251.91;5028166;28;20056;-59
2022/12/12 08:08:38;;;;;;;8.95;6.68;;;;;;;-0.13;97.06;100258.06;5017765;28;20057;-59
2022/12/12 08:11:07;;;;;;;9.18;6.47;;;;;;;-0.08;97.71;100251.06;5027090;28;20059;-59
2022/12/12 08:13:35;;;;;;;7.78;6.20;;;;;;;-0.06;96.83;100263.06;5029729;28;20132;-61
2022/12/12 08:16:04;;;;;;;7.88;6.07;;;;;;;-0.01;96.74;100256.06;5032828;28;20083;-61
2022/12/12 08:18:31;;;;;;;9.27;6.32;;;;;;;0.05;96.97;100264.59;5029496;28;20077;-60
2022/12/12 08:20:59;;;;;;;8.23;6.38;;;;;;;0.03;96.31;100263.75;5029413;28;20045;-61
2022/12/12 08:23:26;;;;;;;9.20;6.80;;;;;;;0.05;95.73;100268.03;5027092;28;20077;-61
2022/12/12 08:25:53;;;;;;;8.50;5.78;;;;;;;0.07;96.39;100270.59;5035511;28;20075;-58
2022/12/12 08:28:20;;;;;;;9.65;6.53;;;;;;;0.02;95.63;100277.59;5030393;28;20149;-61
2022/12/12 08:30:49;;;;;;;9.65;5.75;;;;;;;-0.01;95.52;100271.59;5030195;28;20545;-60
2022/12/12 08:33:17;;;;;;;8.18;6.07;;;;;;;-0.02;95.64;100277.66;5027499;28;20064;-60
2022/12/12 08:35:44;;;;;;;9.13;6.50;;;;;;;-0.03;95.30;100282.88;5030341;28;20199;-61
2022/12/12 08:38:12;;;;;;;9.80;6.63;;;;;;;-0.03;95.24;100272.53;5029988;28;20141;-61
2022/12/12 08:40:40;;;;;;;10.40;6.40;;;;;;;-0.12;95.20;100278.75;5029995;28;20547;-57
2022/12/12 08:43:08;;;;;;;8.63;6.07;;;;;;;-0.17;94.82;100279.72;5032997;28;20052;-60
2022/12/12 08:45:39;;;;;;;10.73;6.47;;;;;;;-0.10;94.92;100276.94;5029546;28;20053;-58
2022/12/12 08:48:06;;;;;;;11.02;6.82;;;;;;;-0.07;94.72;100283.81;5031383;28;20132;-60
2022/12/12 08:50:33;;;;;;;11.52;5.38;;;;;;;-0.07;94.90;100279.50;5022674;28;20132;-59
2022/12/12 08:53:00;;;;;;;8.75;6.40;;;;;;;-0.07;94.03;100289.00;5028234;28;20042;-61
2022/12/12 08:55:28;;;;;;;8.07;5.60;;;;;;;-0.15;93.50;100283.97;5026870;28;20413;-59
2022/12/12 08:57:55;;;;;;;8.45;5.85;;;;;;;-0.07;93.54;100301.94;5010860;28;20053;-60
2022/12/12 09:00:22;;;;;;;10.02;6.53;;;;;;;-0.01;93.19;100299.19;5028048;28;20360;-61
2022/12/12 09:02:49;;;;;;;9.85;5.13;;;;;;;0.04;93.08;100301.69;5032247;28;20046;-60
2022/12/12 09:05:17;;;;;;;11.70;5.75;;;;;;;-0.08;91.72;100306.25;5029865;28;20057;-61
2022/12/12 09:07:44;;;;;;;8.63;5.57;;;;;;;-0.14;92.29;100306.34;5029822;28;20136;-61
2022/12/12 09:10:11;;;;;;;8.18;5.53;;;;;;;-0.05;92.85;100308.75;5029852;28;20307;-60
2022/12/12 09:12:38;;;;;;;8.38;4.97;;;;;;;-0.05;92.93;100311.34;5029756;28;20076;-59
2022/12/12 09:15:08;;;;;;;9.75;5.28;;;;;;;-0.03;92.49;100308.75;5027985;28;20083;-58
2022/12/12 09:17:35;;;;;;;8.27;5.88;;;;;;;-0.11;92.46;100315.81;5011533;28;20049;-59
2022/12/12 09:20:03;;;;;;;8.05;6.00;;;;;;;-0.19;91.54;100313.38;5029035;28;20071;-59
2022/12/12 09:22:30;;;;;;;9.50;6.00;;;;;;;-0.08;91.83;100321.78;5028619;28;20132;-59
2022/12/12 09:24:57;;;;;;;9.02;5.95;;;;;;;-0.13;91.81;100315.00;5025010;28;20454;-58
2022/12/12 09:27:25;;;;;;;8.13;5.75;;;;;;;-0.10;91.17;100318.34;5023534;28;20580;-60
2022/12/12 09:29:52;;;;;;;7.43;5.93;;;;;;;-0.19;90.23;100323.72;5027568;28;20180;-60
2022/12/12 09:32:19;;;;;;;6.90;5.15;;;;;;;-0.22;90.73;100328.13;5029258;28;20180;-59
2022/12/12 09:34:51;;;;;;;8.68;5.43;;;;;;;-0.31;90.74;100329.16;5027933;28;20133;-60
2022/12/12 09:37:18;;;;;;;10.10;5.13;;;;;;;-0.34;91.13;100319.69;5028336;28;20073;-60
2022/12/12 09:39:45;;;;;;;8.88;7.20;;;;;;;-0.29;91.23;100332.53;5033643;28;20144;-59
2022/12/12 09:42:28;;;;;;;8.63;6.15;;;;;;;-0.26;91.73;100328.16;5027019;28;20068;-59
2022/12/12 09:44:59;;;;;;;6.63;5.53;;;;;;;-0.18;91.28;100321.97;5024675;28;20056;-60
2022/12/12 09:47:35;;;;;;;9.93;5.55;;;;;;;-0.24;90.66;100328.13;5027758;28;20053;-58
2022/12/12 09:50:22;;;;;;;;;;;;;;;-0.29;90.38;100325.63;5028624;28;20107;-59
2022/12/12 09:52:50;;;;;;;8.48;5.88;;;;;;;-0.18;89.31;100319.38;5024282;28;19921;-58
2022/12/12 09:55:24;;;;;;;9.82;6.20;;;;;;;-0.25;89.07;100323.84;5026014;28;20057;-58
2022/12/12 09:58:02;;;;;;;10.23;5.40;;;;;;;-0.28;89.39;100318.72;5032216;28;20072;-60
2022/12/12 10:00:33;;;;;;;8.68;5.57;;;;;;;-0.32;89.64;100320.50;5027653;28;20061;-59
2022/12/12 10:03:21;;;;;;;10.35;5.15;;;;;;;-0.18;89.28;100321.97;5011354;28;20061;-59
2022/12/12 10:05:49;;;;;;;8.35;4.95;;;;;;;-0.29;88.79;100320.47;5030719;28;20143;-61
2022/12/12 10:08:48;;;;;;;6.05;4.28;;;;;;;-0.12;88.65;100314.09;5028172;28;20142;-60
2022/12/12 10:14:09;;;;;;;8.50;5.25;;;;;;;-0.28;87.51;100316.97;5012574;28;20152;-60
2022/12/12 10:16:37;;;;;;;7.95;5.53;;;;;;;-0.31;87.57;100323.97;5010449;28;20096;-59
2022/12/12 10:19:18;;;;;;;6.47;5.25;;;;;;;-0.28;87.71;100318.72;5004463;28;20172;-61
2022/12/12 10:21:47;;;;;;;8.32;5.30;;;;;;;-0.22;87.36;100328.97;5009410;28;20134;-61
2022/12/12 10:24:39;;;;;;;8.43;4.78;;;;;;;-0.23;87.13;100322.06;5006494;28;20411;-61
2022/12/12 10:27:11;;;;;;;8.98;5.15;;;;;;;-0.14;87.33;100324.47;5010151;28;20052;-59
2022/12/12 10:29:45;;;;;;;5.53;4.53;;;;;;;-0.08;87.33;100328.69;5025922;28;20144;-59
2022/12/12 10:32:27;;;;;;;5.78;4.05;;;;;;;-0.08;86.44;100324.38;5025888;28;20787;-56
2022/12/12 10:34:54;;;;;;;6.47;3.90;;;;;;;-0.16;85.71;100323.66;5024193;28;20057;-60
2022/12/12 10:37:27;;;;;;;7.43;4.72;;;;;;;-0.13;86.53;100322.75;5024264;28;20132;-59
2022/12/12 10:40:13;;;;;;;6.90;4.50;;;;;;;0.03;85.81;100329.31;5021317;28;20045;-61
2022/12/12 10:42:48;;;;;;;7.07;4.60;;;;;;;0.13;86.06;100327.38;5022925;28;20112;-57
2022/12/12 10:45:50;;;;;;;4.77;3.90;;;;;;;0.12;84.81;100328.28;5026856;28;20429;-60
2022/12/12 10:48:18;;;;;;;6.22;4.03;;;;;;;0.13;83.98;100324.78;5025828;28;20062;-60
2022/12/12 10:50:55;;;;;;;7.20;3.92;;;;;;;0.12;83.43;100323.94;5023641;28;20049;-61
2022/12/12 10:53:22;;;;;;;5.25;3.97;;;;;;;0.16;83.57;100323.00;5007513;28;20061;-59
2022/12/12 10:55:55;;;;;;;5.07;3.65;;;;;;;0.31;83.36;100323.53;5026108;28;20540;-58
2022/12/12 10:58:29;;;;;;;5.05;4.00;;;;;;;0.54;82.90;100328.22;5008213;28;20058;-59
2022/12/12 11:01:02;;;;;;;7.97;3.58;;;;;;;0.76;81.11;100322.50;5016305;28;20045;-58
2022/12/12 11:03:41;;;;;;;5.35;3.15;;;;;;;0.97;79.51;100322.88;5029402;28;20248;-58
2022/12/12 11:06:17;;;;;;;4.82;3.67;;;;;;;1.04;78.14;100323.56;5011307;28;20045;-59
2022/12/12 11:08:56;;;;;;;6.55;4.03;;;;;;;1.30;79.00;100328.13;5013111;28;20060;-59
2022/12/12 11:11:26;;;;;;;6.60;3.70;;;;;;;1.34;77.98;100317.63;5030002;28;20496;-60
2022/12/12 11:13:59;;;;;;;4.75;3.80;;;;;;;1.55;77.79;100316.22;5030283;28;20049;-61
2022/12/12 11:16:29;;;;;;;5.72;3.72;;;;;;;1.61;75.41;100320.38;5028253;28;20152;-62
2022/12/12 11:18:58;;;;;;;6.70;3.78;;;;;;;1.58;74.63;100312.69;5009040;28;20080;-61
2022/12/12 11:21:27;;;;;;;4.70;3.50;;;;;;;1.40;73.96;100324.41;5026266;28;20071;-61
2022/12/12 11:23:55;;;;;;;6.78;3.85;;;;;;;1.57;74.61;100311.81;5028202;28;20079;-61
2022/12/12 11:26:23;;;;;;;5.43;4.30;;;;;;;1.74;74.22;100314.81;5027816;28;20148;-60
2022/12/12 11:29:01;;;;;;;5.75;4.28;;;;;;;1.92;73.30;100317.78;5032384;28;20049;-61
2022/12/12 11:31:30;;;;;;;5.97;3.95;;;;;;;1.69;72.37;100308.91;5011743;28;20145;-61
2022/12/12 11:34:00;;;;;;;6.28;4.18;;;;;;;1.59;73.83;100307.47;5014279;28;20081;-56
2022/12/12 11:36:34;;;;;;;6.72;4.75;;;;;;;1.75;74.20;100310.47;5009505;28;20041;-62
2022/12/12 11:39:15;;;;;;;6.60;5.13;;;;;;;1.98;74.32;100318.50;5025366;28;20409;-58
2022/12/12 11:41:59;;;;;;;7.28;5.03;;;;;;;1.76;71.86;100317.38;5008517;28;20129;-61
2022/12/12 11:44:32;;;;;;;6.72;4.43;;;;;;;1.61;72.62;100325.56;5016228;28;20053;-61
2022/12/12 11:47:17;;;;;;;4.93;4.13;;;;;;;1.63;74.12;100326.41;5010657;28;20037;-61
2022/12/12 11:49:46;;;;;;;6.88;4.60;;;;;;;1.59;73.16;100325.63;5027795;28;20092;-61
2022/12/12 11:52:24;;;;;;;7.10;4.95;;;;;;;1.28;72.42;100333.34;5032603;28;20059;-61
2022/12/12 11:54:52;;;;;;;5.40;4.45;;;;;;;1.20;74.52;100328.34;5032792;28;20058;-59
2022/12/12 11:57:38;;;;;;;7.28;4.68;;;;;;;1.06;74.62;100330.44;5028707;28;20140;-61
2022/12/12 12:00:11;;;;;;;8.98;5.25;;;;;;;1.01;75.93;100335.75;5024909;28;20042;-59
2022/12/12 12:03:04;;;;;;;10.68;5.65;;;;;;;0.79;75.41;100324.19;5030294;28;20415;-61
2022/12/12 12:05:46;;;;;;;9.10;5.18;;;;;;;0.60;75.49;100334.13;5010468;28;20059;-57
2022/12/12 12:08:39;;;;;;;6.75;5.22;;;;;;;0.45;76.97;100332.75;5030452;28;20046;-63
2022/12/12 12:11:25;;;;;;;9.57;7.05;;;;;;;0.55;78.45;100333.38;5026516;28;20049;-62
2022/12/12 12:14:02;;;;;;;8.48;6.25;;;;;;;0.55;77.37;100338.56;5012581;28;20128;-59
2022/12/12 12:16:50;;;;;;;7.60;5.55;;;;;;;0.23;77.02;100341.84;5006568;28;20058;-59
2022/12/12 12:19:43;;;;;;;8.70;6.75;;;;;;;0.08;78.17;100352.50;5032146;28;20046;-62
2022/12/12 12:22:16;;;;;;;9.10;6.32;;;;;;;-0.12;79.10;100352.91;5028067;28;20053;-61
2022/12/12 12:25:02;;;;;;;9.63;7.30;;;;;;;-0.22;79.07;100352.25;5027804;28;20057;-59
2022/12/12 12:27:37;;;;;;;11.27;7.78;;;;;;;-0.15;81.22;100347.78;5034453;28;20145;-61
2022/12/12 12:30:23;;;;;;;10.70;7.60;;;;;;;-0.26;80.47;100342.84;5029356;28;20151;-61
2022/12/12 12:32:53;;;;;;;;;;;;;;;-0.10;81.96;100338.19;5013034;28;20081;-61
2022/12/12 12:35:30;;;;;;;8.57;6.90;;;;;;;0.01;81.57;100338.84;5032621;28;19928;-60
2022/12/12 12:38:06;;;;;;;9.23;7.32;;;;;;;0.13;81.50;100340.31;5028336;28;20088;-62
2022/12/12 12:40:41;;;;;;;8.18;5.80;;;;;;;0.21;78.68;100328.06;5023363;28;20053;-60
2022/12/12 12:43:23;;;;;;;6.57;4.80;;;;;;;0.04;76.44;100331.00;5026831;28;20119;-59
2022/12/12 12:46:10;;;;;;;8.45;4.25;;;;;;;-0.19;76.12;100330.63;5030665;28;20133;-62
2022/12/12 12:48:48;;;;;;;6.57;4.53;;;;;;;-0.20;77.66;100337.53;5029609;28;20117;-58
2022/12/12 12:51:51;;;;;;;6.90;5.25;;;;;;;-0.12;77.87;100333.06;5021738;28;20152;-60
2022/12/12 12:54:24;;;;;;;6.13;4.75;;;;;;;-0.15;78.08;100332.28;5021945;28;20149;-61
2022/12/12 12:57:03;;;;;;;7.85;4.72;;;;;;;-0.22;77.87;100333.28;5010800;28;20057;-59
2022/12/12 12:59:34;;;;;;;5.78;4.47;;;;;;;-0.27;76.18;100338.53;5022758;28;20156;-59
2022/12/12 13:02:11;;;;;;;7.60;4.88;;;;;;;-0.35;76.87;100335.25;5008630;28;20050;-59
2022/12/12 13:05:06;;;;;;;5.63;4.07;;;;;;;-0.36;75.27;100330.94;5009973;28;20050;-61
2022/12/12 13:07:48;;;;;;;5.70;4.18;;;;;;;-0.39;76.07;100336.19;4990480;28;20042;-60
2022/12/12 13:10:22;;;;;;;6.85;4.72;;;;;;;-0.42;75.45;100320.72;5023954;28;20080;-61
2022/12/12 13:12:56;;;;;;;8.32;3.85;;;;;;;-0.42;75.88;100333.66;5010289;28;20046;-61
2022/12/12 13:15:33;;;;;;;10.35;4.28;;;;;;;-0.48;74.52;100337.22;5009234;28;20053;-59
2022/12/12 13:18:04;;;;;;;4.78;3.60;;;;;;;-0.57;75.48;100327.03;5007700;28;20064;-61
2022/12/12 13:20:34;;;;;;;5.97;3.70;;;;;;;-0.58;76.10;100326.19;5027308;28;20059;-58
2022/12/12 13:23:13;;;;;;;6.72;4.03;;;;;;;-0.55;76.54;100333.88;5009491;28;20117;-58
2022/12/12 13:26:07;;;;;;;5.85;4.32;;;;;;;-0.46;77.87;100337.16;5024389;28;20050;-60
2022/12/12 13:28:39;;;;;;;6.68;4.65;;;;;;;-0.39;77.21;100331.03;5006754;28;20052;-61
2022/12/12 13:31:54;;;;;;;5.25;4.28;;;;;;;-0.35;77.20;100335.25;5008040;28;20049;-61
2022/12/12 13:34:23;;;;;;;4.82;4.13;;;;;;;-0.27;76.74;100338.53;4971942;28;20068;-60
2022/12/12 13:36:50;;;;;;;6.22;4.43;;;;;;;-0.36;76.63;100334.41;5028392;28;20147;-60
2022/12/12 13:39:29;;;;;;;6.43;4.68;;;;;;;-0.46;74.73;100339.75;5009248;28;20053;-61
2022/12/12 13:42:00;;;;;;;5.28;4.20;;;;;;;-0.52;74.61;100331.22;5026869;28;20135;-61
2022/12/12 13:44:35;;;;;;;5.35;4.07;;;;;;;-0.64;74.58;100346.97;5012267;28;20095;-59
2022/12/12 13:47:34;;;;;;;6.93;4.57;;;;;;;-0.71;75.21;100336.78;5029628;28;20045;-62
2022/12/12 13:50:08;;;;;;;8.20;5.15;;;;;;;-0.61;76.74;100344.31;5026921;28;20052;-62
2022/12/12 13:52:42;;;;;;;6.53;4.88;;;;;;;-0.48;76.30;100338.94;5030012;28;20053;-61
2022/12/12 13:55:12;;;;;;;5.53;4.15;;;;;;;-0.54;74.74;100342.47;5011593;28;20073;-61
2022/12/12 13:58:15;;;;;;;6.60;4.68;;;;;;;-0.68;74.97;100344.44;5031030;28;20577;-61
2022/12/12 14:00:42;;;;;;;6.63;4.90;;;;;;;-0.71;75.83;100355.72;5020594;28;20076;-61
2022/12/12 14:03:09;;;;;;;6.75;4.97;;;;;;;-0.75;74.80;100340.28;5030425;28;20050;-61
2022/12/12 14:06:06;;;;;;;6.07;4.30;;;;;;;-0.83;75.48;100351.59;5024896;28;20525;-62
2022/12/12 14:08:35;;;;;;;9.20;5.18;;;;;;;-0.93;74.57;100352.63;5026842;28;20103;-62
2022/12/12 14:11:06;;;;;;;7.68;5.47;;;;;;;-1.07;74.67;100346.84;5025906;28;20387;-60
2022/12/12 14:13:44;;;;;;;8.52;5.45;;;;;;;-1.09;75.56;100356.31;5024224;28;20061;-63
2022/12/12 14:16:24;;;;;;;9.38;6.03;;;;;;;-1.13;75.79;100360.69;5027630;28;20567;-62
2022/12/12 14:18:58;;;;;;;9.43;6.68;;;;;;;-1.09;76.29;100356.31;5024477;28;20054;-60
2022/12/12 14:21:41;;;;;;;8.27;6.50;;;;;;;-1.23;76.27;100366.88;5029451;28;20543;-63
2022/12/12 14:24:33;;;;;;;8.63;6.72;;;;;;;-1.19;77.02;100360.78;5027326;28;20107;-61
2022/12/12 14:27:06;;;;;;;8.32;6.75;;;;;;;-1.21;77.24;100359.13;5027519;28;20063;-61
2022/12/12 14:29:38;;;;;;;8.70;6.45;;;;;;;-1.27;77.76;100366.06;5028591;28;20136;-59
2022/12/12 14:32:11;;;;;;;10.02;7.47;;;;;;;-1.32;78.85;100364.41;5025550;28;20061;-59
2022/12/12 14:35:00;;;;;;;10.32;7.53;;;;;;;-1.37;79.35;100371.38;5027202;28;20500;-61
2022/12/12 14:54:35;;;;;;;15.32;10.63;;;;;;;-1.59;82.58;100383.72;5026131;28;20236;-60
2022/12/12 15:10:44;;;;;;;14.88;10.52;;;;;;;-1.67;83.78;100391.56;5026139;28;20108;-62
2022/12/12 15:26:43;;;;;;;14.02;10.23;;;;;;;-1.63;83.32;100408.72;5024104;28;20256;-61
2022/12/12 18:21:53;;;;;;;7.57;5.43;;;;;;;-1.59;78.04;100462.03;5015359;28;20455;-60
2022/12/12 18:24:28;;;;;;;7.78;5.43;;;;;;;-1.70;76.64;100458.72;5014736;28;20060;-62
2022/12/12 18:26:58;;;;;;;7.45;5.00;;;;;;;-1.72;77.43;100459.59;5013553;28;20067;-60
2022/12/12 18:29:25;;;;;;;9.75;5.82;;;;;;;-1.70;77.50;100466.47;5013550;28;20064;-63
2022/12/12 18:31:52;;;;;;;7.28;5.10;;;;;;;-1.71;76.80;100459.59;5015302;28;20049;-61
2022/12/12 18:34:20;;;;;;;8.07;4.75;;;;;;;-1.63;76.50;100456.91;5019168;28;20152;-60
2022/12/12 18:49:36;;;;;;;5.95;4.60;;;;;;;-1.83;75.96;100464.88;5023614;28;20053;-61
2022/12/12 19:09:45;;;;;;;6.10;4.40;;;;;;;-1.96;75.34;100476.22;5025545;28;20127;-61
2022/12/12 20:16:59;;;;;;;9.98;7.88;;;;;;;-2.30;82.23;100499.72;5028578;28;20044;-61
2022/12/12 23:33:58;;;;;;;16.95;10.90;;;;;;;-1.74;77.60;100518.97;5028037;28;20048;-64
2022/12/12 23:36:34;;;;;;;16.60;10.77;;;;;;;-1.75;77.76;100511.28;5023411;28;20049;-63
